Time;durP1;ratioP1;P1;durP2;ratioP2;P2;SDS_P1;SDS_P2;PMS_P1;PMS_P2;Temp;Humidity;BMP_temperature;BMP_pressure;BME280_temperature;BME280_humidity;BME280_pressure;Samples;Min_cycle;Max_cycle;Signal;HPM_P1;HPM_P2
2022/03/30 00:00:26;;;;;;;;;;;8.70;99.90;;;;;;5093106;28;19958;-75
2022/03/30 00:02:52;;;;;;;;;;;8.70;99.90;;;;;;5092805;28;19916;-76
2022/03/30 00:05:17;;;;;;;;;;;8.70;99.90;;;;;;5092869;28;20326;-76
2022/03/30 00:07:43;;;;;;;;;;;8.60;99.90;;;;;;5109291;28;19914;-76
2022/03/30 00:10:08;;;;;;;;;;;8.60;99.90;;;;;;5112752;28;19908;-76
2022/03/30 00:12:34;;;;;;;;;;;8.60;99.90;;;;;;5113232;28;20380;-76
2022/03/30 00:15:00;;;;;;;;;;;8.50;99.90;;;;;;5112520;28;19908;-75
2022/03/30 00:17:26;;;;;;;;;;;8.50;99.90;;;;;;5112893;28;19946;-76
2022/03/30 00:19:51;;;;;;;;;;;8.40;99.90;;;;;;5112649;28;19915;-76
2022/03/30 00:22:17;;;;;;;;;;;8.50;99.90;;;;;;5113174;28;20345;-76
2022/03/30 00:24:43;;;;;;;;;;;8.40;99.90;;;;;;5099856;28;19970;-75
2022/03/30 00:27:09;;;;;;;;;;;8.40;99.90;;;;;;5112851;28;20295;-75
2022/03/30 00:29:35;;;;;;;;;;;8.40;99.90;;;;;;5112825;28;19908;-75
2022/03/30 00:32:00;;;;;;;;;;;8.30;99.90;;;;;;5112526;28;19945;-75
2022/03/30 00:34:26;;;;;;;;;;;8.30;99.90;;;;;;5112820;28;20443;-76
2022/03/30 00:36:52;;;;;;;;;;;8.30;99.90;;;;;;5112511;28;19927;-76
2022/03/30 00:39:17;;;;;;;;;;;8.30;99.90;;;;;;5113015;28;19951;-75
2022/03/30 00:41:43;;;;;;;;;;;8.20;99.90;;;;;;5112171;28;19915;-75
2022/03/30 00:44:10;;;;;;;;;;;8.30;99.90;;;;;;5113108;28;20378;-75
2022/03/30 00:46:35;;;;;;;;;;;8.30;99.90;;;;;;5113412;28;19908;-75
2022/03/30 00:49:02;;;;;;;;;;;8.30;99.90;;;;;;5111299;28;20003;-76
2022/03/30 00:51:27;;;;;;;;;;;8.30;99.90;;;;;;5102505;28;20289;-76
2022/03/30 00:53:53;;;;;;;;;;;8.20;99.90;;;;;;5112403;28;19922;-75
2022/03/30 00:56:19;;;;;;;;;;;8.20;99.90;;;;;;5116298;28;19907;-75
2022/03/30 00:58:44;;;;;;;;;;;8.20;99.90;;;;;;5116141;28;19926;-75
2022/03/30 01:01:11;;;;;;;;;;;8.10;99.90;;;;;;5116279;28;19922;-76
2022/03/30 01:03:37;;;;;;;;;;;8.10;99.90;;;;;;5115651;28;19915;-75
2022/03/30 01:06:02;;;;;;;;;;;8.10;99.90;;;;;;5115527;28;19968;-76
2022/03/30 01:08:28;;;;;;;;;;;8.20;99.90;;;;;;5116082;28;19908;-75
2022/03/30 01:10:54;;;;;;;;;;;8.20;99.90;;;;;;5115423;28;19908;-76
2022/03/30 01:13:20;;;;;;;;;;;8.20;99.90;;;;;;5116180;28;19908;-76
2022/03/30 01:15:46;;;;;;;;;;;8.20;99.90;;;;;;5115783;28;19908;-75
2022/03/30 01:18:12;;;;;;;;;;;8.20;99.90;;;;;;5116310;28;19908;-75
2022/03/30 01:20:38;;;;;;;;;;;8.20;99.90;;;;;;5116215;28;19908;-76
2022/03/30 01:23:04;;;;;;;;;;;8.20;99.90;;;;;;5115857;28;20473;-76
2022/03/30 01:25:29;;;;;;;;;;;8.20;99.90;;;;;;5116244;28;19921;-76
2022/03/30 01:27:55;;;;;;;;;;;8.20;99.90;;;;;;5115464;28;19908;-75
2022/03/30 01:33:06;;;;;;;;;;;8.30;99.90;;;;;;5115674;28;20500;-75
2022/03/30 01:35:32;;;;;;;;;;;8.40;99.90;;;;;;5117541;28;19907;-75
2022/03/30 01:37:58;;;;;;;;;;;8.40;99.90;;;;;;5115896;28;19908;-74
2022/03/30 01:40:24;;;;;;;;;;;8.40;99.90;;;;;;5116499;28;19915;-75
2022/03/30 01:42:49;;;;;;;;;;;8.40;99.90;;;;;;5115165;28;20268;-75
2022/03/30 01:45:16;;;;;;;;;;;8.50;99.90;;;;;;5115782;28;19922;-75
2022/03/30 01:47:52;;;;;;;;;;;8.60;99.90;;;;;;5115707;28;19915;-74
2022/03/30 01:50:18;;;;;;;;;;;8.60;99.90;;;;;;5115731;28;20010;-75
2022/03/30 01:52:43;;;;;;;;;;;8.60;99.90;;;;;;5115700;28;20381;-75
2022/03/30 01:55:09;;;;;;;;;;;8.60;99.90;;;;;;5113782;28;19908;-75
2022/03/30 01:57:34;;;;;;;;;;;8.70;99.90;;;;;;5115329;28;19920;-75
2022/03/30 02:00:04;;;;;;;;;;;8.70;99.90;;;;;;5112767;28;20277;-74
2022/03/30 02:02:30;;;;;;;;;;;8.70;99.90;;;;;;5115484;28;19959;-75
2022/03/30 02:04:55;;;;;;;;;;;8.70;99.90;;;;;;5114316;28;19948;-74
2022/03/30 02:07:21;;;;;;;;;;;8.70;99.90;;;;;;5115253;28;19911;-75
2022/03/30 02:09:48;;;;;;;;;;;8.60;99.90;;;;;;5115179;28;19911;-75
2022/03/30 02:12:14;;;;;;;;;;;8.70;99.90;;;;;;5115095;28;19915;-75
2022/03/30 02:14:41;;;;;;;;;;;8.70;99.90;;;;;;5115009;28;19908;-75
2022/03/30 02:17:06;;;;;;;;;;;8.60;99.90;;;;;;5113408;28;20518;-75
2022/03/30 02:19:32;;;;;;;;;;;8.60;99.90;;;;;;5116195;28;19918;-75
2022/03/30 02:21:58;;;;;;;;;;;8.60;99.90;;;;;;5117191;28;19915;-76
2022/03/30 02:24:24;;;;;;;;;;;8.60;99.90;;;;;;5115548;28;19927;-75
2022/03/30 02:26:50;;;;;;;;;;;8.60;99.90;;;;;;5114579;28;19911;-75
2022/03/30 02:29:16;;;;;;;;;;;8.60;99.90;;;;;;5115127;28;19972;-75
2022/03/30 02:31:42;;;;;;;;;;;8.60;99.90;;;;;;5115011;28;19919;-75
2022/03/30 02:34:08;;;;;;;;;;;8.60;99.90;;;;;;5114425;28;20463;-75
2022/03/30 02:36:34;;;;;;;;;;;8.60;99.90;;;;;;5113790;28;19999;-75
2022/03/30 02:39:00;;;;;;;;;;;8.60;99.90;;;;;;5114047;28;19951;-75
2022/03/30 02:41:26;;;;;;;;;;;8.50;99.90;;;;;;5114417;28;19908;-75
2022/03/30 02:43:52;;;;;;;;;;;8.50;99.90;;;;;;5113970;28;19912;-75
2022/03/30 02:46:17;;;;;;;;;;;8.50;99.90;;;;;;5115113;28;19934;-75
2022/03/30 02:48:43;;;;;;;;;;;8.50;99.90;;;;;;5114668;28;19953;-75
2022/03/30 02:51:09;;;;;;;;;;;8.50;99.90;;;;;;5114066;28;19915;-75
2022/03/30 02:53:35;;;;;;;;;;;8.50;99.90;;;;;;5114642;28;20003;-75
2022/03/30 02:56:01;;;;;;;;;;;8.40;99.90;;;;;;5119243;28;19969;-75
2022/03/30 02:58:27;;;;;;;;;;;8.40;99.90;;;;;;5114987;28;19919;-75
2022/03/30 03:00:54;;;;;;;;;;;8.40;99.90;;;;;;5113895;28;19957;-75
2022/03/30 03:03:20;;;;;;;;;;;8.40;99.90;;;;;;5114293;28;19908;-75
2022/03/30 03:05:46;;;;;;;;;;;8.40;99.90;;;;;;5119540;28;20269;-74
2022/03/30 03:08:12;;;;;;;;;;;8.40;99.90;;;;;;5117582;28;19999;-76
2022/03/30 03:10:39;;;;;;;;;;;8.30;99.90;;;;;;5112567;28;19942;-76
2022/03/30 03:13:05;;;;;;;;;;;8.40;99.90;;;;;;5113401;28;19908;-75
2022/03/30 03:15:31;;;;;;;;;;;8.40;99.90;;;;;;5112587;28;19956;-76
2022/03/30 03:17:57;;;;;;;;;;;8.40;99.90;;;;;;5112773;28;19908;-76
2022/03/30 03:20:23;;;;;;;;;;;8.30;99.90;;;;;;5113876;28;19911;-76
2022/03/30 03:22:49;;;;;;;;;;;8.30;99.90;;;;;;5113939;28;19976;-76
2022/03/30 03:25:14;;;;;;;;;;;8.30;99.90;;;;;;5113030;28;19912;-77
2022/03/30 03:27:40;;;;;;;;;;;8.30;99.90;;;;;;5113960;28;19912;-76
2022/03/30 03:30:06;;;;;;;;;;;8.30;99.90;;;;;;5113306;28;19908;-76
2022/03/30 03:32:32;;;;;;;;;;;8.30;99.90;;;;;;5113900;28;19912;-76
2022/03/30 03:34:57;;;;;;;;;;;8.30;99.90;;;;;;5112984;28;19915;-76
2022/03/30 03:37:23;;;;;;;;;;;8.30;99.90;;;;;;5113678;28;19908;-76
2022/03/30 03:39:49;;;;;;;;;;;8.30;99.90;;;;;;5113518;28;20273;-76
2022/03/30 03:42:16;;;;;;;;;;;8.30;99.90;;;;;;5112952;28;20403;-76
2022/03/30 03:44:41;;;;;;;;;;;8.20;99.90;;;;;;5113474;28;20338;-76
2022/03/30 03:47:09;;;;;;;;;;;8.20;99.90;;;;;;5113140;28;19955;-76
2022/03/30 03:49:35;;;;;;;;;;;8.20;99.90;;;;;;5114563;28;19908;-76
2022/03/30 03:52:01;;;;;;;;;;;8.20;99.90;;;;;;5119883;28;19929;-76
2022/03/30 03:54:26;;;;;;;;;;;8.20;99.90;;;;;;5114491;28;20345;-76
2022/03/30 03:56:52;;;;;;;;;;;8.10;99.90;;;;;;5113086;28;20369;-76
2022/03/30 03:59:17;;;;;;;;;;;8.10;99.90;;;;;;5111677;28;19919;-77
2022/03/30 04:01:43;;;;;;;;;;;8.00;99.90;;;;;;5113480;28;20018;-77
2022/03/30 04:04:09;;;;;;;;;;;8.00;99.90;;;;;;5112831;28;19964;-76
2022/03/30 04:06:35;;;;;;;;;;;7.90;99.90;;;;;;5113199;28;19918;-76
2022/03/30 04:09:00;;;;;;;;;;;7.90;99.90;;;;;;5112706;28;19908;-76
2022/03/30 04:11:26;;;;;;;;;;;7.90;99.90;;;;;;5113414;28;19908;-76
2022/03/30 04:13:51;;;;;;;;;;;7.90;99.90;;;;;;5113403;28;20310;-76
2022/03/30 04:16:17;;;;;;;;;;;7.90;99.90;;;;;;5113121;28;19908;-75
2022/03/30 04:18:43;;;;;;;;;;;7.90;99.90;;;;;;5112859;28;20276;-75
2022/03/30 04:21:09;;;;;;;;;;;7.90;99.90;;;;;;5112769;28;19908;-75
2022/03/30 04:23:35;;;;;;;;;;;7.80;99.90;;;;;;5113244;28;20383;-75
2022/03/30 04:26:00;;;;;;;;;;;7.70;99.90;;;;;;5112401;28;19980;-75
2022/03/30 04:28:26;;;;;;;;;;;7.70;99.90;;;;;;5113794;28;19908;-75
2022/03/30 04:30:51;;;;;;;;;;;7.60;99.90;;;;;;5117132;28;19952;-75
2022/03/30 04:33:17;;;;;;;;;;;7.60;99.90;;;;;;5116619;28;19985;-75
2022/03/30 04:35:43;;;;;;;;;;;7.60;99.90;;;;;;5118167;28;19918;-75
2022/03/30 04:38:08;;;;;;;;;;;7.60;99.90;;;;;;5120548;28;19958;-75
2022/03/30 04:40:34;;;;;;;;;;;7.50;99.90;;;;;;5117237;28;20267;-75
2022/03/30 04:43:00;;;;;;;;;;;7.50;99.90;;;;;;5115193;28;19912;-75
2022/03/30 04:45:25;;;;;;;;;;;7.50;99.90;;;;;;5116736;28;20352;-75
2022/03/30 04:47:54;;;;;;;;;;;7.30;99.90;;;;;;5117250;28;19912;-75
2022/03/30 04:50:21;;;;;;;;;;;7.30;99.90;;;;;;5116002;28;19960;-75
2022/03/30 04:52:46;;;;;;;;;;;7.30;99.90;;;;;;5116886;28;19915;-75
2022/03/30 04:55:12;;;;;;;;;;;7.30;99.90;;;;;;5116317;28;19912;-75
2022/03/30 04:57:38;;;;;;;;;;;7.20;99.90;;;;;;5116339;28;19920;-74
2022/03/30 05:00:05;;;;;;;;;;;7.20;99.90;;;;;;5115961;28;19915;-75
2022/03/30 05:02:32;;;;;;;;;;;7.20;99.90;;;;;;5116634;28;19907;-74
2022/03/30 05:04:57;;;;;;;;;;;7.20;99.90;;;;;;5116200;28;19912;-75
2022/03/30 05:07:24;;;;;;;;;;;7.20;99.90;;;;;;5116230;28;19919;-74
2022/03/30 05:09:49;;;;;;;;;;;7.20;99.90;;;;;;5116206;28;19908;-74
2022/03/30 05:12:15;;;;;;;;;;;7.10;99.90;;;;;;5115363;28;19914;-75
2022/03/30 05:14:41;;;;;;;;;;;7.10;99.90;;;;;;5116395;28;19915;-74
2022/03/30 05:17:08;;;;;;;;;;;7.10;99.90;;;;;;5115647;28;19908;-75
2022/03/30 05:19:34;;;;;;;;;;;7.10;99.90;;;;;;5116524;28;19957;-75
2022/03/30 05:21:59;;;;;;;;;;;7.20;99.90;;;;;;5118539;28;19908;-75
2022/03/30 05:24:25;;;;;;;;;;;7.20;99.90;;;;;;5116354;28;19916;-75
2022/03/30 05:26:53;;;;;;;;;;;7.20;99.90;;;;;;5116120;28;19947;-75
2022/03/30 05:29:18;;;;;;;;;;;7.30;99.90;;;;;;5119215;28;19911;-75
2022/03/30 05:31:45;;;;;;;;;;;7.30;99.90;;;;;;5122087;28;19938;-75
2022/03/30 05:34:10;;;;;;;;;;;7.40;99.90;;;;;;5115523;28;19908;-75
2022/03/30 05:36:36;;;;;;;;;;;7.40;99.90;;;;;;5114552;28;19915;-75
2022/03/30 05:39:02;;;;;;;;;;;7.50;99.90;;;;;;5114998;28;19912;-76
2022/03/30 05:41:28;;;;;;;;;;;7.50;99.90;;;;;;5113566;28;19908;-76
2022/03/30 05:43:53;;;;;;;;;;;7.50;99.90;;;;;;5115280;28;20383;-76
2022/03/30 05:46:19;;;;;;;;;;;7.50;99.90;;;;;;5114799;28;19919;-75
2022/03/30 05:48:44;;;;;;;;;;;7.50;99.90;;;;;;5115463;28;20393;-75
2022/03/30 05:51:10;;;;;;;;;;;7.50;99.90;;;;;;5114495;28;20353;-75
2022/03/30 05:53:36;;;;;;;;;;;7.50;99.90;;;;;;5115709;28;19908;-75
2022/03/30 05:56:02;;;;;;;;;;;7.50;99.90;;;;;;5114949;28;20284;-75
2022/03/30 05:58:27;;;;;;;;;;;7.50;99.90;;;;;;5114839;28;19942;-75
2022/03/30 06:00:53;;;;;;;;;;;7.60;99.90;;;;;;5115173;28;20412;-75
2022/03/30 06:03:18;;;;;;;;;;;7.60;99.90;;;;;;5114781;28;19908;-75
2022/03/30 06:05:44;;;;;;;;;;;7.60;99.90;;;;;;5119218;28;19978;-75
2022/03/30 06:08:10;;;;;;;;;;;7.60;99.90;;;;;;5118604;28;19908;-76
2022/03/30 06:10:36;;;;;;;;;;;7.60;99.90;;;;;;5114839;28;19953;-75
2022/03/30 06:13:02;;;;;;;;;;;7.50;99.90;;;;;;5115079;28;19953;-76
2022/03/30 06:15:28;;;;;;;;;;;7.50;99.90;;;;;;5114702;28;19907;-76
2022/03/30 06:17:55;;;;;;;;;;;7.50;99.90;;;;;;5114505;28;19969;-75
2022/03/30 06:20:24;;;;;;;;;;;7.50;99.90;;;;;;5114030;28;19991;-76
2022/03/30 06:22:53;;;;;;;;;;;7.60;99.90;;;;;;5114806;28;19912;-75
2022/03/30 06:25:25;;;;;;;;;;;7.60;99.90;;;;;;5114288;28;19918;-75
2022/03/30 06:27:51;;;;;;;;;;;7.60;99.90;;;;;;5114853;28;20277;-75
2022/03/30 06:30:17;;;;;;;;;;;7.60;99.90;;;;;;5114426;28;19998;-75
2022/03/30 06:32:43;;;;;;;;;;;7.70;99.90;;;;;;5115127;28;19912;-75
2022/03/30 06:35:08;;;;;;;;;;;7.70;99.90;;;;;;5113833;28;19908;-76
2022/03/30 06:37:34;;;;;;;;;;;7.70;99.90;;;;;;5114384;28;19911;-76
2022/03/30 06:40:00;;;;;;;;;;;7.70;99.90;;;;;;5114410;28;19914;-75
2022/03/30 06:42:25;;;;;;;;;;;7.70;99.90;;;;;;5113615;28;19908;-74
2022/03/30 06:44:51;;;;;;;;;;;7.70;99.90;;;;;;5114211;28;20303;-74
2022/03/30 06:47:16;;;;;;;;;;;7.70;99.90;;;;;;5117764;28;19961;-74
2022/03/30 06:49:42;;;;;;;;;;;7.80;99.90;;;;;;5120236;28;19931;-74
2022/03/30 06:52:09;;;;;;;;;;;7.80;99.90;;;;;;5114772;28;19907;-74
2022/03/30 06:54:35;;;;;;;;;;;7.80;99.90;;;;;;5113875;28;20318;-74
2022/03/30 06:57:01;;;;;;;;;;;7.80;99.90;;;;;;5114101;28;19908;-73
2022/03/30 06:59:27;;;;;;;;;;;7.90;99.90;;;;;;5113287;28;19973;-74
2022/03/30 07:01:55;;;;;;;;;;;8.00;99.90;;;;;;5114060;28;19923;-73
2022/03/30 07:04:20;;;;;;;;;;;8.00;99.90;;;;;;5113299;28;20037;-73
2022/03/30 07:12:14;;;;;;;;;;;8.30;99.90;;;;;;5112943;28;19915;-74
2022/03/30 07:14:40;;;;;;;;;;;8.40;99.90;;;;;;5113623;28;19907;-74
2022/03/30 07:17:05;;;;;;;;;;;8.30;99.90;;;;;;5113475;28;19908;-74
2022/03/30 07:19:31;;;;;;;;;;;8.40;99.90;;;;;;5113536;28;19908;-74
2022/03/30 07:21:56;;;;;;;;;;;8.40;99.90;;;;;;5113656;28;19911;-75
2022/03/30 07:24:22;;;;;;;;;;;8.40;99.90;;;;;;5112966;28;20395;-75
2022/03/30 07:26:48;;;;;;;;;;;8.40;99.90;;;;;;5113711;28;20056;-75
2022/03/30 07:29:13;;;;;;;;;;;8.50;99.90;;;;;;5113039;28;19908;-75
2022/03/30 07:31:39;;;;;;;;;;;8.50;99.90;;;;;;5113522;28;20002;-75
2022/03/30 07:34:04;;;;;;;;;;;8.50;99.90;;;;;;5113331;28;19908;-76
2022/03/30 07:36:31;;;;;;;;;;;8.60;99.90;;;;;;5114419;28;20101;-75
2022/03/30 07:38:56;;;;;;;;;;;8.60;99.90;;;;;;5113858;28;19915;-75
2022/03/30 07:41:22;;;;;;;;;;;8.70;99.90;;;;;;5105585;28;20453;-75
2022/03/30 07:43:47;;;;;;;;;;;8.70;99.90;;;;;;5092474;28;19916;-75
2022/03/30 07:46:13;;;;;;;;;;;8.70;99.90;;;;;;5090559;28;20032;-75
2022/03/30 07:48:39;;;;;;;;;;;8.60;99.90;;;;;;5092988;28;19915;-75
2022/03/30 07:51:05;;;;;;;;;;;8.70;99.90;;;;;;5092470;28;20011;-76
2022/03/30 07:53:30;;;;;;;;;;;8.70;99.90;;;;;;5092064;28;19954;-76
2022/03/30 07:55:56;;;;;;;;;;;8.70;99.90;;;;;;5092768;28;19908;-77
2022/03/30 07:58:22;;;;;;;;;;;8.70;99.90;;;;;;5091832;28;20070;-75
2022/03/30 08:00:48;;;;;;;;;;;8.70;99.90;;;;;;5091374;28;19912;-76
2022/03/30 08:03:14;;;;;;;;;;;8.70;99.90;;;;;;5091594;28;19912;-75
2022/03/30 08:05:39;;;;;;;;;;;8.70;99.90;;;;;;5093335;28;19980;-76
2022/03/30 08:08:07;;;;;;;;;;;8.70;99.90;;;;;;5092606;28;19912;-76
2022/03/30 08:10:35;;;;;;;;;;;8.70;99.90;;;;;;5092251;28;20360;-76
2022/03/30 08:13:01;;;;;;;;;;;8.70;99.90;;;;;;5092313;28;19912;-76
2022/03/30 08:15:27;;;;;;;;;;;8.70;99.90;;;;;;5092258;28;19914;-76
2022/03/30 08:17:54;;;;;;;;;;;8.60;99.90;;;;;;5092126;28;19964;-76
2022/03/30 08:23:09;;;;;;;;;;;8.60;99.90;;;;;;5072357;28;19969;-76
2022/03/30 08:25:35;;;;;;;;;;;8.60;99.90;;;;;;5091903;28;20319;-76
2022/03/30 08:28:01;;;;;;;;;;;8.60;99.90;;;;;;5092543;28;20353;-76
2022/03/30 08:30:27;;;;;;;;;;;8.50;99.90;;;;;;5091949;28;19912;-76
2022/03/30 08:32:53;;;;;;;;;;;8.40;99.90;;;;;;5092755;28;19961;-76
2022/03/30 08:35:19;;;;;;;;;;;8.50;99.90;;;;;;5091806;28;19908;-76
2022/03/30 08:37:45;;;;;;;;;;;8.50;99.90;;;;;;5092461;28;19912;-76
2022/03/30 08:40:11;;;;;;;;;;;8.50;99.90;;;;;;5090519;28;19953;-76
2022/03/30 08:42:38;;;;;;;;;;;8.50;99.90;;;;;;5091168;28;19909;-76
2022/03/30 08:45:05;;;;;;;;;;;8.50;99.90;;;;;;5091979;28;20409;-76
2022/03/30 08:47:31;;;;;;;;;;;8.50;99.90;;;;;;5091504;28;19977;-76
2022/03/30 08:49:57;;;;;;;;;;;8.50;99.90;;;;;;5092347;28;19909;-76
2022/03/30 08:52:22;;;;;;;;;;;8.60;99.90;;;;;;5089074;28;20270;-76
2022/03/30 08:54:51;;;;;;;;;;;8.50;99.90;;;;;;5092276;28;19961;-76
2022/03/30 08:57:17;;;;;;;;;;;8.50;99.90;;;;;;5091516;28;20311;-76
2022/03/30 09:00:12;;;;;;;;;;;8.40;99.90;;;;;;5092374;28;19924;-77
2022/03/30 09:02:37;;;;;;;;;;;8.40;99.90;;;;;;5082825;28;20015;-76
2022/03/30 09:05:12;;;;;;;;;;;8.50;99.90;;;;;;5092177;28;19951;-76
2022/03/30 09:07:37;;;;;;;;;;;8.40;99.90;;;;;;5094031;28;19991;-76
2022/03/30 09:10:03;;;;;;;;;;;8.40;99.90;;;;;;5092280;28;20340;-76
2022/03/30 09:12:29;;;;;;;;;;;8.40;99.90;;;;;;5091639;28;19918;-76
2022/03/30 09:15:05;;;;;;;;;;;8.40;99.90;;;;;;5091907;28;19911;-77
2022/03/30 09:17:37;;;;;;;;;;;8.40;99.90;;;;;;5094850;28;19904;-77
2022/03/30 09:20:04;;;;;;;;;;;8.50;99.90;;;;;;5095558;28;19995;-76
2022/03/30 09:22:31;;;;;;;;;;;8.50;99.90;;;;;;5095139;28;19912;-76
2022/03/30 09:24:57;;;;;;;;;;;8.50;99.90;;;;;;5095586;28;19962;-76
2022/03/30 09:27:24;;;;;;;;;;;8.60;99.90;;;;;;5094978;28;19959;-76
2022/03/30 09:29:49;;;;;;;;;;;8.70;99.90;;;;;;5095375;28;19918;-75
2022/03/30 09:32:15;;;;;;;;;;;8.80;99.90;;;;;;5094626;28;20082;-75
2022/03/30 09:34:49;;;;;;;;;;;8.80;99.90;;;;;;5095090;28;20309;-75
2022/03/30 09:37:15;;;;;;;;;;;8.70;99.90;;;;;;5093422;28;19915;-75
2022/03/30 09:39:41;;;;;;;;;;;8.70;99.90;;;;;;5128307;27;20380;-75
2022/03/30 09:42:08;;;;;;;;;;;8.70;99.90;;;;;;5095321;28;19915;-75
2022/03/30 09:44:47;;;;;;;;;;;8.60;99.90;;;;;;5093293;28;19912;-75
2022/03/30 09:47:13;;;;;;;;;;;8.60;99.90;;;;;;5094607;28;20062;-75
2022/03/30 09:49:39;;;;;;;;;;;8.60;99.90;;;;;;5095082;28;19954;-75
2022/03/30 09:52:11;;;;;;;;;;;8.50;99.90;;;;;;5095152;28;19909;-75
2022/03/30 09:54:40;;;;;;;;;;;8.50;99.90;;;;;;5094636;28;19956;-75
2022/03/30 09:57:10;;;;;;;;;;;8.50;99.90;;;;;;5094959;28;19908;-76
2022/03/30 10:00:15;;;;;;;;;;;8.50;99.90;;;;;;5092814;28;20049;-75
2022/03/30 10:02:40;;;;;;;;;;;8.50;99.90;;;;;;5072072;28;20380;-75
2022/03/30 10:05:07;;;;;;;;;;;8.50;99.90;;;;;;5071716;28;19932;-75
2022/03/30 10:07:33;;;;;;;;;;;8.40;99.90;;;;;;5071503;28;19971;-75
2022/03/30 10:09:59;;;;;;;;;;;8.40;99.90;;;;;;5072446;28;19955;-75
2022/03/30 10:12:26;;;;;;;;;;;8.40;99.90;;;;;;5071320;28;19916;-75
2022/03/30 10:14:53;;;;;;;;;;;8.40;99.90;;;;;;5071959;28;19986;-75
2022/03/30 10:17:18;;;;;;;;;;;8.40;99.90;;;;;;5070952;28;19948;-75
2022/03/30 10:19:46;;;;;;;;;;;8.50;99.90;;;;;;5071744;28;19908;-75
2022/03/30 10:22:15;;;;;;;;;;;8.50;99.90;;;;;;5071445;28;19915;-75
2022/03/30 10:24:40;;;;;;;;;;;8.50;99.90;;;;;;5071832;28;19959;-75
2022/03/30 10:27:26;;;;;;;;;;;8.50;99.90;;;;;;5056138;28;19913;-75
2022/03/30 10:29:57;;;;;;;;;;;8.50;99.90;;;;;;5071509;28;20005;-74
2022/03/30 10:32:24;;;;;;;;;;;8.50;99.90;;;;;;5070824;28;19916;-75
2022/03/30 10:34:53;;;;;;;;;;;8.50;99.90;;;;;;5073787;28;19908;-75
2022/03/30 10:37:36;;;;;;;;;;;8.50;99.90;;;;;;5071385;28;19912;-74
2022/03/30 10:40:05;;;;;;;;;;;8.30;99.90;;;;;;5088533;28;20289;-75
2022/03/30 10:42:46;;;;;;;;;;;8.20;99.90;;;;;;5093365;28;19935;-74
2022/03/30 10:45:25;;;;;;;;;;;8.10;99.90;;;;;;5094670;28;19912;-74
2022/03/30 10:48:24;;;;;;;;;;;8.20;99.90;;;;;;5114052;28;19912;-75
2022/03/30 10:50:51;;;;;;;;;;;8.10;99.90;;;;;;5079479;28;19908;-75
2022/03/30 10:53:31;;;;;;;;;;;8.10;99.90;;;;;;5113407;28;20276;-75
2022/03/30 10:56:24;;;;;;;;;;;8.10;99.90;;;;;;5114086;28;19908;-75
2022/03/30 10:58:52;;;;;;;;;;;8.10;99.90;;;;;;5105843;28;20302;-75
2022/03/30 11:01:28;;;;;;;;;;;8.00;99.90;;;;;;5113245;28;19908;-75
2022/03/30 11:03:57;;;;;;;;;;;8.00;99.90;;;;;;5113998;28;19911;-75
2022/03/30 11:06:23;;;;;;;;;;;8.10;99.90;;;;;;5097880;28;19923;-74
2022/03/30 11:08:48;;;;;;;;;;;8.10;99.90;;;;;;5093323;28;19908;-74
2022/03/30 11:11:29;;;;;;;;;;;8.10;99.90;;;;;;5093270;28;19908;-75
2022/03/30 11:14:13;;;;;;;;;;;8.00;99.90;;;;;;5093340;28;19908;-75
2022/03/30 11:16:48;;;;;;;;;;;8.00;99.90;;;;;;5093672;28;19908;-75
2022/03/30 11:19:14;;;;;;;;;;;8.10;99.90;;;;;;5092879;28;19908;-75
2022/03/30 11:21:51;;;;;;;;;;;8.20;99.90;;;;;;5093370;28;19908;-75
2022/03/30 11:24:23;;;;;;;;;;;8.20;99.90;;;;;;5091355;28;20358;-75
2022/03/30 11:26:48;;;;;;;;;;;8.20;99.90;;;;;;5092988;28;20373;-75
2022/03/30 11:29:33;;;;;;;;;;;8.10;99.90;;;;;;5092810;28;19915;-75
2022/03/30 11:31:58;;;;;;;;;;;8.20;99.90;;;;;;5093037;28;19912;-75
2022/03/30 11:34:30;;;;;;;;;;;8.30;99.90;;;;;;5092259;28;19991;-75
2022/03/30 11:36:56;;;;;;;;;;;8.30;99.90;;;;;;5093239;28;19908;-75
2022/03/30 11:39:31;;;;;;;;;;;8.40;99.90;;;;;;5090641;28;20010;-75
2022/03/30 11:41:58;;;;;;;;;;;8.30;99.90;;;;;;5093280;28;19993;-75
2022/03/30 11:47:16;;;;;;;;;;;8.30;99.90;;;;;;5092605;28;20001;-75
2022/03/30 11:49:56;;;;;;;;;;;8.40;99.90;;;;;;5092427;28;19908;-75
2022/03/30 11:52:22;;;;;;;;;;;8.40;99.90;;;;;;5092358;28;19908;-75
2022/03/30 11:54:48;;;;;;;;;;;8.50;99.90;;;;;;5092593;28;19914;-75
2022/03/30 11:57:15;;;;;;;;;;;8.50;99.90;;;;;;5096504;28;19908;-75
2022/03/30 11:59:40;;;;;;;;;;;8.40;99.90;;;;;;5092311;28;19923;-75
2022/03/30 12:02:07;;;;;;;;;;;8.50;99.90;;;;;;5092558;28;19957;-75
2022/03/30 12:04:33;;;;;;;;;;;8.50;99.90;;;;;;5092114;28;19923;-75
2022/03/30 12:06:58;;;;;;;;;;;8.50;99.90;;;;;;5092584;28;19912;-75
2022/03/30 12:09:24;;;;;;;;;;;8.50;99.90;;;;;;5092189;28;19953;-75
2022/03/30 12:11:50;;;;;;;;;;;8.50;99.90;;;;;;5092461;28;19966;-75
2022/03/30 12:14:25;;;;;;;;;;;8.40;99.90;;;;;;5092588;28;19940;-75
2022/03/30 12:16:51;;;;;;;;;;;8.50;99.90;;;;;;5093763;28;19910;-75
2022/03/30 12:19:17;;;;;;;;;;;8.60;99.90;;;;;;5091571;28;19908;-75
2022/03/30 12:21:42;;;;;;;;;;;8.80;99.90;;;;;;5092736;28;19968;-75
2022/03/30 12:24:11;;;;;;;;;;;8.80;99.90;;;;;;5092607;28;19954;-75
2022/03/30 12:26:37;;;;;;;;;;;8.80;99.90;;;;;;5091874;28;19915;-75
2022/03/30 12:29:06;;;;;;;;;;;8.80;99.90;;;;;;5092194;28;19963;-75
2022/03/30 12:31:41;;;;;;;;;;;8.70;99.90;;;;;;5091742;28;19909;-75
2022/03/30 12:34:08;;;;;;;;;;;8.70;99.90;;;;;;5092176;28;19908;-75
2022/03/30 12:36:39;;;;;;;;;;;8.70;99.90;;;;;;5090408;28;19908;-76
2022/03/30 12:39:13;;;;;;;;;;;8.50;99.90;;;;;;5092021;28;19909;-75
2022/03/30 12:41:39;;;;;;;;;;;8.70;99.90;;;;;;5091708;28;20021;-76
2022/03/30 12:44:05;;;;;;;;;;;8.80;99.90;;;;;;5091994;28;20015;-75
2022/03/30 12:46:33;;;;;;;;;;;8.60;99.90;;;;;;5091369;28;19912;-75
2022/03/30 12:49:06;;;;;;;;;;;8.60;99.90;;;;;;5092159;28;19944;-75
2022/03/30 12:51:33;;;;;;;;;;;8.60;99.90;;;;;;5095305;28;20312;-76
2022/03/30 12:53:59;;;;;;;;;;;8.50;99.90;;;;;;5096073;28;19908;-75
2022/03/30 12:56:25;;;;;;;;;;;8.60;99.90;;;;;;5095298;28;19912;-75
2022/03/30 12:58:52;;;;;;;;;;;8.60;99.90;;;;;;5095649;28;20373;-75
2022/03/30 13:01:37;;;;;;;;;;;8.70;99.90;;;;;;5095934;28;19995;-75
2022/03/30 13:04:16;;;;;;;;;;;8.80;99.90;;;;;;5095470;28;19969;-76
2022/03/30 13:06:41;;;;;;;;;;;8.80;99.90;;;;;;5094919;28;20361;-75
2022/03/30 13:09:12;;;;;;;;;;;8.80;99.90;;;;;;5095401;28;19915;-75
2022/03/30 13:11:42;;;;;;;;;;;8.90;99.90;;;;;;5094996;28;19920;-75
2022/03/30 13:14:15;;;;;;;;;;;8.80;99.90;;;;;;5095614;28;19968;-75
2022/03/30 13:16:40;;;;;;;;;;;9.00;99.90;;;;;;5094664;28;20747;-75
2022/03/30 13:19:08;;;;;;;;;;;9.00;99.90;;;;;;5095600;28;19908;-75
2022/03/30 13:21:44;;;;;;;;;;;8.90;99.90;;;;;;5093734;28;19911;-76
2022/03/30 13:24:11;;;;;;;;;;;8.70;99.90;;;;;;5095442;28;19978;-75
2022/03/30 13:26:37;;;;;;;;;;;8.60;99.90;;;;;;5094807;28;19912;-75
2022/03/30 13:29:03;;;;;;;;;;;8.30;99.90;;;;;;5095340;28;20315;-75
2022/03/30 13:31:30;;;;;;;;;;;8.10;99.90;;;;;;5094892;28;19912;-76
2022/03/30 13:33:56;;;;;;;;;;;8.10;99.90;;;;;;5095138;28;19915;-75
2022/03/30 13:36:22;;;;;;;;;;;8.10;99.90;;;;;;5094609;28;19909;-76
2022/03/30 13:38:49;;;;;;;;;;;8.30;99.90;;;;;;5095096;28;20325;-75
2022/03/30 13:41:16;;;;;;;;;;;8.40;99.90;;;;;;5095272;28;19915;-75
2022/03/30 13:43:42;;;;;;;;;;;8.40;99.90;;;;;;5094276;28;19908;-75
2022/03/30 13:46:08;;;;;;;;;;;8.40;99.90;;;;;;5095175;28;20430;-75
2022/03/30 13:48:34;;;;;;;;;;;8.20;99.90;;;;;;5092334;28;19934;-75
2022/03/30 13:51:02;;;;;;;;;;;8.20;99.90;;;;;;5095405;28;19908;-75
2022/03/30 13:53:29;;;;;;;;;;;8.10;99.90;;;;;;5094184;28;19916;-75
2022/03/30 13:55:55;;;;;;;;;;;8.00;99.90;;;;;;5094657;28;20379;-75
2022/03/30 13:58:21;;;;;;;;;;;8.20;99.90;;;;;;5094481;28;20006;-76
2022/03/30 14:00:47;;;;;;;;;;;8.20;99.90;;;;;;5093870;28;19908;-75
2022/03/30 14:03:12;;;;;;;;;;;8.30;99.90;;;;;;5094179;28;19919;-75
2022/03/30 14:05:38;;;;;;;;;;;8.30;99.90;;;;;;5093992;28;19919;-75
2022/03/30 14:08:04;;;;;;;;;;;8.30;99.90;;;;;;5094298;28;19944;-75
2022/03/30 14:10:30;;;;;;;;;;;8.30;99.90;;;;;;5093833;28;20291;-75
2022/03/30 14:12:56;;;;;;;;;;;8.30;99.90;;;;;;5094368;28;19908;-75
2022/03/30 14:15:21;;;;;;;;;;;8.20;99.90;;;;;;5094564;28;20014;-75
2022/03/30 14:17:48;;;;;;;;;;;8.10;99.90;;;;;;5094271;28;19908;-75
2022/03/30 14:20:14;;;;;;;;;;;8.30;99.90;;;;;;5092378;28;20296;-75
2022/03/30 14:22:41;;;;;;;;;;;8.30;99.90;;;;;;5092966;28;19916;-76
2022/03/30 14:25:07;;;;;;;;;;;8.50;99.90;;;;;;5094243;28;19916;-75
2022/03/30 14:27:33;;;;;;;;;;;8.50;99.90;;;;;;5093506;28;19969;-75
2022/03/30 14:29:58;;;;;;;;;;;8.70;99.90;;;;;;5094299;28;20291;-76
2022/03/30 14:32:24;;;;;;;;;;;8.80;99.90;;;;;;5093316;28;20356;-76
2022/03/30 14:34:52;;;;;;;;;;;8.80;99.90;;;;;;5094130;28;19915;-75
2022/03/30 14:37:18;;;;;;;;;;;8.60;99.90;;;;;;5093729;28;20006;-75
2022/03/30 14:39:44;;;;;;;;;;;8.50;99.90;;;;;;5093818;28;19908;-75
2022/03/30 14:42:10;;;;;;;;;;;8.70;99.90;;;;;;5094025;28;20280;-75
2022/03/30 14:44:35;;;;;;;;;;;8.50;99.90;;;;;;5093081;28;19916;-75